Airport View

Enter AWOS ICAO identifier for current METAR.

ex. KFNL

KNTU 192156Z 15005KT 10SM SCT200 OVC250 16/08 A3004 RMK AO2 SLP175 T01610078

19 Oct 2019 22:33

Phone: DSN 433-3619

Other Area AWOS: KNFE - KORF - KNGU - KCPK

TAF KNTU 1915/2015 12006KT 9999 FEW030 SCT250 QNH2998INS FM200100 12010KT 9999 VCSH SCT030 OVC250 QNH2977INS TEMPO 2003/2009 10015G23KT 3200 +SHRA BR BKN005 BKN015 OVC070 TEMPO 2009/2014 10015G23KT 3200 +SHRA BR BKN005 BKN015 OVC070 T19/1919Z T15/2002Z FN00216